Time,TemperatureF,DewpointF,PressureIn,WindDirection,WindDirectionDegrees,WindSpeedMPH,WindSpeedGustMPH,Humidity,HourlyPrecipIn,Conditions,Clouds,dailyrainin,SoftwareType,DateUTC
2013-01-06 00:02:00,41.2,38.5,0.00,SSW,197,0.0,0.0,90,0.00,,---,0.00,VWS V14.01,2013-01-06 08:02:00,
2013-01-06 00:07:00,41.2,38.5,0.00,SSW,197,0.0,0.0,90,0.00,,---,0.00,VWS V14.01,2013-01-06 08:07:00,
2013-01-06 00:12:00,41.2,38.5,0.00,SW,230,0.0,0.0,90,0.00,,---,0.00,VWS V14.01,2013-01-06 08:12:00,
2013-01-06 00:17:00,41.2,38.5,0.00,WSW,238,0.0,0.0,90,0.04,,---,0.04,VWS V14.01,2013-01-06 08:17:00,
2013-01-06 00:22:00,41.2,38.8,0.00,WSW,238,0.0,0.0,91,0.04,,---,0.04,VWS V14.01,2013-01-06 08:22:00,
2013-01-06 00:27:00,41.2,38.8,0.00,WSW,251,0.0,0.0,91,0.04,,---,0.04,VWS V14.01,2013-01-06 08:27:00,
2013-01-06 00:32:00,41.2,38.8,0.00,SSW,200,0.0,0.0,91,0.04,,---,0.04,VWS V14.01,2013-01-06 08:32:00,
2013-01-06 00:37:00,41.2,38.8,0.00,SW,225,0.0,0.0,91,0.04,,---,0.04,VWS V14.01,2013-01-06 08:37:00,
2013-01-06 00:42:00,41.2,38.8,0.00,West,266,0.0,0.0,91,0.04,,---,0.04,VWS V14.01,2013-01-06 08:42:00,
2013-01-06 00:47:00,41.2,38.8,0.00,West,266,0.0,0.0,91,0.04,,---,0.04,VWS V14.01,2013-01-06 08:47:00,
2013-01-06 00:52:00,41.2,38.8,0.00,West,266,0.0,0.0,91,0.04,,---,0.04,VWS V14.01,2013-01-06 08:52:00,
2013-01-06 00:57:00,41.2,38.8,0.00,West,266,0.0,0.0,91,0.04,,---,0.04,VWS V14.01,2013-01-06 08:57:00,
2013-01-06 01:02:00,41.2,39.0,0.00,West,266,0.0,0.0,92,0.04,,---,0.04,VWS V14.01,2013-01-06 09:02:00,
2013-01-06 01:07:00,41.2,39.0,0.00,West,266,0.0,0.0,92,0.04,,---,0.04,VWS V14.01,2013-01-06 09:07:00,
2013-01-06 01:12:00,41.2,39.0,0.00,West,266,0.0,0.0,92,0.04,,---,0.04,VWS V14.01,2013-01-06 09:12:00,
2013-01-06 01:17:00,41.2,39.0,0.00,West,266,0.0,0.0,92,0.00,,---,0.04,VWS V14.01,2013-01-06 09:17:00,
2013-01-06 01:22:00,41.2,39.0,0.00,West,266,0.0,0.0,92,0.00,,---,0.04,VWS V14.01,2013-01-06 09:22:00,
2013-01-06 01:27:00,41.2,39.0,0.00,West,266,0.0,0.0,92,0.00,,---,0.04,VWS V14.01,2013-01-06 09:27:00,
2013-01-06 01:32:00,41.4,39.2,0.00,West,266,0.0,0.0,92,0.00,,---,0.04,VWS V14.01,2013-01-06 09:32:00,
2013-01-06 01:37:00,41.4,39.5,0.00,West,266,0.0,0.0,93,0.00,,---,0.04,VWS V14.01,2013-01-06 09:37:00,
2013-01-06 01:42:00,41.4,39.5,0.00,West,266,0.0,0.0,93,0.00,,---,0.04,VWS V14.01,2013-01-06 09:42:00,
2013-01-06 01:47:00,41.4,39.5,0.00,West,266,0.0,0.0,93,0.00,,---,0.04,VWS V14.01,2013-01-06 09:47:00,
2013-01-06 01:52:00,41.4,39.5,0.00,West,266,0.0,0.0,93,0.00,,---,0.04,VWS V14.01,2013-01-06 09:52:00,
2013-01-06 01:57:00,41.4,39.5,0.00,West,266,0.0,0.0,93,0.00,,---,0.04,VWS V14.01,2013-01-06 09:57:00,
2013-01-06 02:02:00,41.4,39.5,0.00,West,266,0.0,0.0,93,0.00,,---,0.04,VWS V14.01,2013-01-06 10:02:00,
2013-01-06 02:07:00,41.4,39.5,0.00,West,266,0.0,0.0,93,0.00,,---,0.04,VWS V14.01,2013-01-06 10:07:00,
2013-01-06 02:12:00,41.4,39.5,0.00,West,266,0.0,0.0,93,0.00,,---,0.04,VWS V14.01,2013-01-06 10:12:00,
2013-01-06 02:17:00,41.5,39.7,0.00,West,266,0.0,0.0,93,0.00,,---,0.04,VWS V14.01,2013-01-06 10:17:00,
2013-01-06 02:22:00,41.5,39.7,0.00,West,266,0.0,0.0,93,0.00,,---,0.04,VWS V14.01,2013-01-06 10:22:00,
2013-01-06 02:27:00,41.5,39.7,0.00,West,266,0.0,0.0,93,0.00,,---,0.04,VWS V14.01,2013-01-06 10:27:00,
2013-01-06 02:32:00,41.5,40.0,0.00,West,266,0.0,0.0,94,0.00,,---,0.16,VWS V14.01,2013-01-06 10:32:00,
2013-01-06 02:37:00,41.5,40.0,0.00,West,266,0.0,0.0,94,0.00,,---,0.04,VWS V14.01,2013-01-06 10:37:00,
2013-01-06 02:42:00,41.5,40.0,0.00,West,266,0.0,0.0,94,0.00,,---,0.04,VWS V14.01,2013-01-06 10:42:00,
2013-01-06 02:47:00,41.5,40.0,0.00,West,266,0.0,0.0,94,0.00,,---,0.04,VWS V14.01,2013-01-06 10:47:00,
2013-01-06 02:52:00,41.5,40.0,0.00,West,266,0.0,0.0,94,0.00,,---,0.04,VWS V14.01,2013-01-06 10:52:00,
2013-01-06 02:57:00,41.5,40.0,0.00,West,266,0.0,0.0,94,0.00,,---,0.04,VWS V14.01,2013-01-06 10:57:00,
2013-01-06 03:02:00,41.7,40.1,0.00,West,266,0.0,0.0,94,0.00,,---,0.04,VWS V14.01,2013-01-06 11:02:00,
2013-01-06 03:07:00,41.7,40.1,0.00,West,266,0.0,0.0,94,0.00,,---,0.04,VWS V14.01,2013-01-06 11:07:00,
2013-01-06 03:12:00,41.7,40.1,0.00,SW,216,0.0,0.0,94,0.00,,---,0.04,VWS V14.01,2013-01-06 11:12:00,
2013-01-06 03:17:00,41.7,40.4,0.00,SW,216,0.0,0.0,95,0.00,,---,0.04,VWS V14.01,2013-01-06 11:17:00,
2013-01-06 03:22:00,41.5,40.2,0.00,SW,216,0.0,0.0,95,0.00,,---,0.04,VWS V14.01,2013-01-06 11:22:00,
2013-01-06 03:27:00,41.5,40.2,0.00,SW,216,0.0,0.0,95,0.00,,---,0.04,VWS V14.01,2013-01-06 11:27:00,
2013-01-06 03:32:00,41.5,40.2,0.00,SW,216,0.0,0.0,95,0.00,,---,0.04,VWS V14.01,2013-01-06 11:32:00,
2013-01-06 03:37:00,41.4,40.0,0.00,SW,216,0.0,0.0,95,0.00,,---,0.04,VWS V14.01,2013-01-06 11:37:00,
2013-01-06 03:42:00,41.2,39.6,0.00,SW,216,0.0,0.0,94,0.00,,---,0.04,VWS V14.01,2013-01-06 11:42:00,
2013-01-06 03:47:00,41.0,39.4,0.00,SW,216,0.0,0.0,94,0.00,,---,0.04,VWS V14.01,2013-01-06 11:47:00,
2013-01-06 03:52:00,40.6,39.3,0.00,SW,216,0.0,0.0,95,0.00,,---,0.04,VWS V14.01,2013-01-06 11:52:00,
2013-01-06 03:57:00,40.5,39.1,0.00,SW,221,0.0,0.0,95,0.00,,---,0.04,VWS V14.01,2013-01-06 11:57:00,
2013-01-06 04:02:00,40.5,39.1,0.00,SW,221,0.0,0.0,95,0.00,,---,0.04,VWS V14.01,2013-01-06 12:02:00,
2013-01-06 04:07:00,40.5,39.1,0.00,WSW,238,0.0,0.0,95,0.00,,---,0.04,VWS V14.01,2013-01-06 12:07:00,
2013-01-06 04:12:00,40.3,39.0,0.00,West,259,0.0,0.0,95,0.00,,---,0.04,VWS V14.01,2013-01-06 12:12:00,
2013-01-06 04:17:00,40.5,39.1,0.00,West,259,0.0,0.0,95,0.00,,---,0.04,VWS V14.01,2013-01-06 12:17:00,
2013-01-06 04:22:00,40.5,39.1,0.00,WSW,246,0.0,0.0,95,0.00,,---,0.04,VWS V14.01,2013-01-06 12:22:00,
2013-01-06 04:27:00,40.5,39.1,0.00,WSW,247,0.0,0.0,95,0.00,,---,0.04,VWS V14.01,2013-01-06 12:27:00,
2013-01-06 04:32:00,40.5,39.1,0.00,WSW,245,0.0,0.0,95,0.00,,---,0.04,VWS V14.01,2013-01-06 12:32:00,
2013-01-06 04:37:00,40.6,39.6,0.00,WSW,237,0.0,0.0,96,0.00,,---,0.04,VWS V14.01,2013-01-06 12:37:00,
2013-01-06 04:42:00,40.6,39.6,0.00,West,279,0.0,0.0,96,0.00,,---,0.04,VWS V14.01,2013-01-06 12:42:00,
2013-01-06 04:47:00,40.6,39.6,0.00,West,260,0.0,0.0,96,0.00,,---,0.04,VWS V14.01,2013-01-06 12:47:00,
2013-01-06 04:52:00,40.6,39.6,0.00,West,260,0.0,0.0,96,0.00,,---,0.04,VWS V14.01,2013-01-06 12:52:00,
2013-01-06 04:57:00,40.8,39.8,0.00,West,280,0.0,0.0,96,0.00,,---,0.04,VWS V14.01,2013-01-06 12:57:00,
2013-01-06 05:02:00,40.8,39.8,0.00,SSW,205,0.0,0.0,96,0.00,,---,0.04,VWS V14.01,2013-01-06 13:02:00,
2013-01-06 05:07:00,40.8,39.8,0.00,SSW,209,0.0,0.0,96,0.00,,---,0.04,VWS V14.01,2013-01-06 13:07:00,
2013-01-06 05:12:00,40.8,39.8,0.00,SSW,209,0.0,0.0,96,0.00,,---,0.04,VWS V14.01,2013-01-06 13:12:00,
2013-01-06 05:17:00,40.6,39.6,0.00,SSW,209,0.0,0.0,96,0.00,,---,0.04,VWS V14.01,2013-01-06 13:17:00,
2013-01-06 05:22:00,40.6,39.6,0.00,SSW,209,0.0,0.0,96,0.00,,---,0.04,VWS V14.01,2013-01-06 13:22:00,
2013-01-06 05:27:00,40.6,39.6,0.00,West,265,0.0,0.0,96,0.00,,---,0.04,VWS V14.01,2013-01-06 13:27:00,
2013-01-06 05:32:00,40.6,39.6,0.00,West,265,0.0,0.0,96,0.00,,---,0.04,VWS V14.01,2013-01-06 13:32:00,
2013-01-06 05:37:00,40.6,39.6,0.00,West,265,0.0,0.0,96,0.00,,---,0.04,VWS V14.01,2013-01-06 13:37:00,
2013-01-06 05:42:00,40.5,39.4,0.00,West,265,0.0,0.0,96,0.00,,---,0.04,VWS V14.01,2013-01-06 13:42:00,
2013-01-06 05:47:00,40.5,39.4,0.00,West,265,0.0,0.0,96,0.00,,---,0.04,VWS V14.01,2013-01-06 13:47:00,
2013-01-06 05:52:00,40.5,39.4,0.00,NW,310,0.0,0.0,96,0.00,,---,0.04,VWS V14.01,2013-01-06 13:52:00,
2013-01-06 05:57:00,40.5,39.4,0.00,NW,310,0.0,0.0,96,0.00,,---,0.04,VWS V14.01,2013-01-06 13:57:00,
2013-01-06 06:02:00,40.5,39.4,0.00,NW,310,0.0,0.0,96,0.00,,---,0.04,VWS V14.01,2013-01-06 14:02:00,
2013-01-06 06:07:00,40.3,39.2,0.00,NW,310,0.0,0.0,96,0.00,,---,0.04,VWS V14.01,2013-01-06 14:07:00,
2013-01-06 06:12:00,40.3,39.2,0.00,NW,310,0.0,0.0,96,0.00,,---,0.04,VWS V14.01,2013-01-06 14:12:00,
2013-01-06 06:17:00,40.3,39.2,0.00,NW,310,0.0,0.0,96,0.00,,---,0.04,VWS V14.01,2013-01-06 14:17:00,
2013-01-06 06:22:00,40.3,39.2,0.00,NW,310,0.0,0.0,96,0.00,,---,0.04,VWS V14.01,2013-01-06 14:22:00,
2013-01-06 06:27:00,40.3,39.5,0.00,NW,310,0.0,0.0,97,0.00,,---,0.04,VWS V14.01,2013-01-06 14:27:00,
2013-01-06 06:32:00,40.3,39.5,0.00,NW,310,0.0,0.0,97,0.00,,---,0.04,VWS V14.01,2013-01-06 14:32:00,
2013-01-06 06:37:00,40.3,39.5,0.00,NW,310,0.0,0.0,97,0.00,,---,0.04,VWS V14.01,2013-01-06 14:37:00,
2013-01-06 06:42:00,40.3,39.5,0.00,NW,310,0.0,0.0,97,0.00,,---,0.04,VWS V14.01,2013-01-06 14:42:00,
2013-01-06 06:47:00,40.3,39.5,0.00,WNW,300,0.0,0.0,97,0.00,,---,0.04,VWS V14.01,2013-01-06 14:47:00,
2013-01-06 06:52:00,40.1,39.3,0.00,WNW,300,0.0,0.0,97,0.00,,---,0.04,VWS V14.01,2013-01-06 14:52:00,
2013-01-06 06:57:00,39.9,39.1,0.00,West,260,0.0,0.0,97,0.00,,---,0.04,VWS V14.01,2013-01-06 14:57:00,
2013-01-06 07:02:00,39.9,39.1,0.00,West,260,0.0,0.0,97,0.00,,---,0.04,VWS V14.01,2013-01-06 15:02:00,
2013-01-06 07:07:00,39.7,39.0,0.00,West,260,0.0,0.0,97,0.00,,---,0.04,VWS V14.01,2013-01-06 15:07:00,
2013-01-06 07:12:00,39.7,39.0,0.00,ESE,120,0.0,0.0,97,0.00,,---,0.04,VWS V14.01,2013-01-06 15:12:00,
2013-01-06 07:17:00,39.7,39.0,0.00,SE,145,0.0,0.0,97,0.00,,---,0.04,VWS V14.01,2013-01-06 15:17:00,
2013-01-06 07:22:00,39.7,39.0,0.00,SE,145,0.0,0.0,97,0.00,,---,0.04,VWS V14.01,2013-01-06 15:22:00,
2013-01-06 07:27:00,39.7,39.0,0.00,SW,218,0.0,0.0,97,0.00,,---,0.04,VWS V14.01,2013-01-06 15:27:00,
2013-01-06 07:32:00,39.7,39.0,0.00,SW,227,0.0,0.0,97,0.00,,---,0.04,VWS V14.01,2013-01-06 15:32:00,
2013-01-06 07:37:00,39.7,39.0,0.00,SW,236,0.0,0.0,97,0.00,,---,0.04,VWS V14.01,2013-01-06 15:37:00,
2013-01-06 07:42:00,39.7,39.0,0.00,SW,219,0.0,0.0,97,0.00,,---,0.04,VWS V14.01,2013-01-06 15:42:00,
2013-01-06 07:47:00,39.7,39.0,0.00,SSW,207,0.0,0.0,97,0.00,,---,0.04,VWS V14.01,2013-01-06 15:47:00,
2013-01-06 07:52:00,39.7,39.0,0.00,WSW,242,0.0,0.0,97,0.00,,---,0.04,VWS V14.01,2013-01-06 15:52:00,
2013-01-06 07:57:00,39.9,39.1,0.00,WSW,249,0.0,0.0,97,0.00,,---,0.04,VWS V14.01,2013-01-06 15:57:00,
2013-01-06 08:02:00,39.9,39.1,0.00,SW,215,0.0,0.0,97,0.00,,---,0.04,VWS V14.01,2013-01-06 16:02:00,
2013-01-06 08:07:00,39.9,39.4,0.00,SW,232,0.0,0.0,98,0.00,,---,0.04,VWS V14.01,2013-01-06 16:07:00,
2013-01-06 08:12:00,39.9,39.4,0.00,SW,232,0.0,0.0,98,0.00,,---,0.04,VWS V14.01,2013-01-06 16:12:00,
2013-01-06 08:17:00,40.1,39.6,0.00,SSW,192,0.0,0.0,98,0.00,,---,0.04,VWS V14.01,2013-01-06 16:17:00,
2013-01-06 08:22:00,40.3,39.8,0.00,SW,222,0.0,0.0,98,0.00,,---,0.04,VWS V14.01,2013-01-06 16:22:00,
2013-01-06 08:27:00,40.3,39.8,0.00,SW,224,0.0,0.0,98,0.00,,---,0.04,VWS V14.01,2013-01-06 16:27:00,
2013-01-06 08:32:00,40.3,39.8,0.00,WSW,256,2.2,2.2,98,0.00,,---,0.04,VWS V14.01,2013-01-06 16:32:00,
2013-01-06 08:37:00,40.5,39.9,0.00,West,259,0.0,0.0,98,0.00,,---,0.04,VWS V14.01,2013-01-06 16:37:00,
2013-01-06 08:42:00,40.5,39.9,0.00,WSW,257,0.0,0.0,98,0.00,,---,0.04,VWS V14.01,2013-01-06 16:42:00,
2013-01-06 08:47:00,40.5,39.9,0.00,SSW,193,3.1,3.1,98,0.00,,---,0.04,VWS V14.01,2013-01-06 16:47:00,
2013-01-06 08:52:00,40.8,40.3,0.00,SSW,212,0.0,0.0,98,0.00,,---,0.04,VWS V14.01,2013-01-06 16:52:00,
2013-01-06 08:57:00,41.0,40.5,0.00,SSW,212,0.0,0.0,98,0.00,,---,0.04,VWS V14.01,2013-01-06 16:57:00,
2013-01-06 09:02:00,41.0,40.5,0.00,SSW,212,0.0,0.0,98,0.00,,---,0.04,VWS V14.01,2013-01-06 17:02:00,
2013-01-06 09:07:00,41.2,40.7,0.00,SSW,212,0.0,0.0,98,0.00,,---,0.04,VWS V14.01,2013-01-06 17:07:00,
2013-01-06 09:12:00,41.2,40.7,0.00,SSW,212,0.0,0.0,98,0.00,,---,0.04,VWS V14.01,2013-01-06 17:12:00,
2013-01-06 09:17:00,41.4,40.8,0.00,SW,223,0.0,0.0,98,0.00,,---,0.04,VWS V14.01,2013-01-06 17:17:00,
2013-01-06 09:22:00,41.5,41.0,0.00,SW,223,0.0,0.0,98,0.00,,---,0.04,VWS V14.01,2013-01-06 17:22:00,
2013-01-06 09:27:00,41.5,41.0,0.00,ESE,120,0.0,2.7,98,0.00,,---,0.04,VWS V14.01,2013-01-06 17:27:00,
2013-01-06 09:32:00,41.5,41.0,0.00,ESE,120,0.0,0.0,98,0.00,,---,0.04,VWS V14.01,2013-01-06 17:32:00,
2013-01-06 09:37:00,41.7,41.2,0.00,SSE,162,0.0,0.0,98,0.00,,---,0.04,VWS V14.01,2013-01-06 17:37:00,
2013-01-06 09:42:00,41.9,41.4,0.00,SSE,163,0.0,0.0,98,0.00,,---,0.04,VWS V14.01,2013-01-06 17:42:00,
2013-01-06 09:47:00,42.1,41.6,0.00,SSE,168,0.0,0.0,98,0.00,,---,0.04,VWS V14.01,2013-01-06 17:47:00,
2013-01-06 09:52:00,42.1,41.6,0.00,SSE,168,0.0,0.0,98,0.00,,---,0.04,VWS V14.01,2013-01-06 17:52:00,
2013-01-06 09:57:00,42.3,41.7,0.00,SSE,168,0.0,0.0,98,0.00,,---,0.04,VWS V14.01,2013-01-06 17:57:00,
2013-01-06 10:02:00,42.4,41.9,0.00,South,182,0.0,0.0,98,0.00,,---,0.04,VWS V14.01,2013-01-06 18:02:00,
2013-01-06 10:07:00,42.6,42.1,0.00,South,182,0.0,0.0,98,0.00,,---,0.04,VWS V14.01,2013-01-06 18:07:00,
2013-01-06 10:12:00,42.8,42.3,0.00,South,182,0.0,0.0,98,0.00,,---,0.04,VWS V14.01,2013-01-06 18:12:00,
2013-01-06 10:17:00,43.0,42.5,0.00,South,182,0.0,0.0,98,0.00,,---,0.04,VWS V14.01,2013-01-06 18:17:00,
2013-01-06 10:22:00,43.2,42.6,0.00,South,184,0.0,0.0,98,0.00,,---,0.04,VWS V14.01,2013-01-06 18:22:00,
2013-01-06 10:27:00,43.3,42.8,0.00,South,184,0.0,0.0,98,0.00,,---,0.04,VWS V14.01,2013-01-06 18:27:00,
2013-01-06 10:32:00,43.3,42.8,0.00,WSW,251,0.0,0.0,98,0.00,,---,0.04,VWS V14.01,2013-01-06 18:32:00,
2013-01-06 10:37:00,43.5,43.0,0.00,ESE,109,2.7,2.7,98,0.00,,---,0.04,VWS V14.01,2013-01-06 18:37:00,
2013-01-06 10:42:00,43.7,43.2,0.00,West,276,0.0,0.0,98,0.00,,---,0.04,VWS V14.01,2013-01-06 18:42:00,
2013-01-06 10:47:00,43.7,43.2,0.00,West,275,0.0,0.0,98,0.00,,---,0.04,VWS V14.01,2013-01-06 18:47:00,
2013-01-06 10:52:00,43.7,43.2,0.00,West,276,0.0,0.0,98,0.00,,---,0.04,VWS V14.01,2013-01-06 18:52:00,
2013-01-06 10:57:00,43.7,43.2,0.00,WSW,247,0.0,0.0,98,0.00,,---,0.04,VWS V14.01,2013-01-06 18:57:00,
2013-01-06 11:02:00,44.1,43.5,0.00,SSW,203,0.0,0.0,98,0.00,,---,0.04,VWS V14.01,2013-01-06 19:02:00,
2013-01-06 11:07:00,44.1,43.5,0.00,ENE,59,0.0,0.0,98,0.00,,---,0.04,VWS V14.01,2013-01-06 19:07:00,
2013-01-06 11:12:00,44.1,43.5,0.00,SSE,162,0.0,0.0,98,0.00,,---,0.04,VWS V14.01,2013-01-06 19:12:00,
2013-01-06 11:17:00,44.2,43.7,0.00,South,181,0.0,0.0,98,0.00,,---,0.04,VWS V14.01,2013-01-06 19:17:00,
2013-01-06 11:22:00,44.2,43.7,0.00,WSW,256,0.0,4.9,98,0.00,,---,0.04,VWS V14.01,2013-01-06 19:22:00,
2013-01-06 11:27:00,44.2,43.7,0.00,WSW,251,0.0,0.0,98,0.00,,---,0.04,VWS V14.01,2013-01-06 19:27:00,
2013-01-06 11:32:00,44.4,43.9,0.00,SW,227,0.0,0.0,98,0.00,,---,0.04,VWS V14.01,2013-01-06 19:32:00,
2013-01-06 11:37:00,44.4,43.9,0.00,WSW,238,2.2,2.2,98,0.00,,---,0.04,VWS V14.01,2013-01-06 19:37:00,
2013-01-06 11:47:00,44.6,44.1,0.00,WSW,245,0.0,0.0,98,0.00,,---,0.04,VWS V14.01,2013-01-06 19:47:00,
2013-01-06 11:52:00,44.8,44.2,0.00,West,278,0.0,0.0,98,0.00,,---,0.04,VWS V14.01,2013-01-06 19:52:00,
2013-01-06 11:57:00,44.8,44.2,0.00,West,261,3.1,3.1,98,0.00,,---,0.04,VWS V14.01,2013-01-06 19:57:00,
2013-01-06 12:02:00,44.8,44.2,0.00,SE,127,0.0,0.0,98,0.00,,---,0.04,VWS V14.01,2013-01-06 20:02:00,
2013-01-06 12:07:00,45.0,44.4,0.00,SSW,207,3.1,5.4,98,0.00,,---,0.04,VWS V14.01,2013-01-06 20:07:00,
2013-01-06 12:11:00,45.0,44.4,0.00,SW,219,0.0,0.0,98,0.00,,---,0.04,VWS V14.01,2013-01-06 20:11:00,
2013-01-06 12:13:00,45.0,44.4,0.00,South,173,0.0,0.0,98,0.00,,---,0.04,VWS V14.01,2013-01-06 20:13:00,
2013-01-06 12:18:00,45.0,44.4,0.00,East,93,0.0,0.0,98,0.00,,---,0.04,VWS V14.01,2013-01-06 20:18:00,
2013-01-06 12:23:00,45.1,44.6,0.00,West,264,4.0,4.0,98,0.00,,---,0.04,VWS V14.01,2013-01-06 20:23:00,
2013-01-06 12:28:00,45.3,44.8,0.00,SW,231,0.0,0.0,98,0.00,,---,0.04,VWS V14.01,2013-01-06 20:28:00,
2013-01-06 12:33:00,45.3,44.8,0.00,WSW,254,0.0,0.0,98,0.00,,---,0.04,VWS V14.01,2013-01-06 20:33:00,
2013-01-06 12:38:00,45.5,45.0,0.00,South,187,0.0,0.0,98,0.00,,---,0.04,VWS V14.01,2013-01-06 20:38:00,
2013-01-06 12:43:00,45.5,45.0,0.00,SW,235,0.0,2.7,98,0.00,,---,0.04,VWS V14.01,2013-01-06 20:43:00,
2013-01-06 12:48:00,45.5,45.0,0.00,West,277,3.6,3.6,98,0.00,,---,0.04,VWS V14.01,2013-01-06 20:48:00,
2013-01-06 12:53:00,45.7,45.2,0.00,SSW,209,3.6,3.6,98,0.00,,---,0.04,VWS V14.01,2013-01-06 20:53:00,
2013-01-06 12:58:00,45.9,45.3,0.00,West,263,0.0,0.0,98,0.00,,---,0.04,VWS V14.01,2013-01-06 20:58:00,
2013-01-06 13:00:00,46.0,45.5,0.00,WSW,249,3.1,3.1,98,0.00,,---,0.04,VWS V14.01,2013-01-06 21:00:00,
2013-01-06 13:05:00,46.0,45.5,0.00,SE,142,2.7,2.7,98,0.00,,---,0.04,VWS V14.01,2013-01-06 21:05:00,
2013-01-06 13:10:00,46.0,45.5,0.00,West,268,3.1,3.1,98,0.00,,---,0.04,VWS V14.01,2013-01-06 21:10:00,
2013-01-06 13:15:00,46.2,45.7,0.00,WNW,285,0.0,0.0,98,0.00,,---,0.04,VWS V14.01,2013-01-06 21:15:00,
2013-01-06 13:20:00,46.2,45.7,0.00,SSW,203,3.1,3.1,98,0.00,,---,0.04,VWS V14.01,2013-01-06 21:20:00,
2013-01-06 13:25:00,46.2,45.7,0.00,WNW,283,4.0,4.0,98,0.00,,---,0.04,VWS V14.01,2013-01-06 21:25:00,
2013-01-06 13:30:00,46.2,45.7,0.00,South,174,4.0,4.0,98,0.00,,---,0.04,VWS V14.01,2013-01-06 21:30:00,
2013-01-06 13:35:00,46.2,45.7,0.00,West,272,0.0,0.0,98,0.00,,---,0.04,VWS V14.01,2013-01-06 21:35:00,
2013-01-06 13:40:00,46.2,45.7,0.00,West,272,0.0,0.0,98,0.00,,---,0.04,VWS V14.01,2013-01-06 21:40:00,
2013-01-06 13:45:00,46.0,45.5,0.00,SW,225,0.0,0.0,98,0.00,,---,0.04,VWS V14.01,2013-01-06 21:45:00,
2013-01-06 13:50:00,46.0,45.5,0.00,WNW,283,2.2,2.2,98,0.00,,---,0.04,VWS V14.01,2013-01-06 21:50:00,
2013-01-06 13:55:00,46.0,45.5,0.00,WNW,295,0.0,0.0,98,0.00,,---,0.04,VWS V14.01,2013-01-06 21:55:00,
2013-01-06 14:00:00,46.0,45.5,0.00,SE,143,0.0,0.0,98,0.00,,---,0.04,VWS V14.01,2013-01-06 22:00:00,
2013-01-06 14:05:00,46.0,45.5,0.00,SSW,209,0.0,0.0,98,0.00,,---,0.04,VWS V14.01,2013-01-06 22:05:00,
2013-01-06 14:10:00,45.9,45.3,0.00,SSW,209,0.0,0.0,98,0.00,,---,0.04,VWS V14.01,2013-01-06 22:10:00,
2013-01-06 14:15:00,45.9,45.3,0.00,SSW,209,0.0,0.0,98,0.00,,---,0.04,VWS V14.01,2013-01-06 22:15:00,
2013-01-06 14:20:00,45.9,45.3,0.00,North,353,0.0,0.0,98,0.00,,---,0.04,VWS V14.01,2013-01-06 22:20:00,
2013-01-06 14:25:00,45.9,45.3,0.00,WSW,237,0.0,0.0,98,0.00,,---,0.04,VWS V14.01,2013-01-06 22:25:00,
2013-01-06 14:30:00,45.9,45.3,0.00,SSE,166,0.0,0.0,98,0.00,,---,0.04,VWS V14.01,2013-01-06 22:30:00,
2013-01-06 14:35:00,45.9,45.3,0.00,South,169,0.0,0.0,98,0.00,,---,0.04,VWS V14.01,2013-01-06 22:35:00,
2013-01-06 14:40:00,45.9,45.3,0.00,South,169,0.0,0.0,98,0.00,,---,0.04,VWS V14.01,2013-01-06 22:40:00,
2013-01-06 14:45:00,45.9,45.3,0.00,South,169,0.0,0.0,98,0.00,,---,0.04,VWS V14.01,2013-01-06 22:45:00,
2013-01-06 14:50:00,45.9,45.3,0.00,South,169,0.0,0.0,98,0.00,,---,0.04,VWS V14.01,2013-01-06 22:50:00,
2013-01-06 14:55:00,45.7,45.2,0.00,WSW,252,0.0,0.0,98,0.00,,---,0.04,VWS V14.01,2013-01-06 22:55:00,
2013-01-06 15:00:00,45.7,45.2,0.00,WSW,252,0.0,0.0,98,0.00,,---,0.04,VWS V14.01,2013-01-06 23:00:00,
2013-01-06 15:05:00,45.7,45.2,0.00,SSW,207,0.0,0.0,98,0.00,,---,0.04,VWS V14.01,2013-01-06 23:05:00,
2013-01-06 15:10:00,45.5,45.0,0.00,SSW,207,0.0,0.0,98,0.00,,---,0.04,VWS V14.01,2013-01-06 23:10:00,
2013-01-06 15:15:00,45.5,45.0,0.00,SSW,207,0.0,0.0,98,0.00,,---,0.04,VWS V14.01,2013-01-06 23:15:00,
2013-01-06 15:20:00,45.5,45.0,0.00,South,190,0.0,0.0,98,0.00,,---,0.04,VWS V14.01,2013-01-06 23:20:00,
2013-01-06 15:25:00,45.5,45.0,0.00,South,190,0.0,0.0,98,0.00,,---,0.04,VWS V14.01,2013-01-06 23:25:00,
2013-01-06 15:30:00,45.5,45.0,0.00,SW,216,0.0,0.0,98,0.00,,---,0.04,VWS V14.01,2013-01-06 23:30:00,
2013-01-06 15:35:00,45.5,45.0,0.00,SW,230,0.0,0.0,98,0.00,,---,0.04,VWS V14.01,2013-01-06 23:35:00,
2013-01-06 15:40:00,45.5,45.0,0.00,SW,230,0.0,0.0,98,0.00,,---,0.04,VWS V14.01,2013-01-06 23:40:00,
2013-01-06 15:45:00,45.5,45.0,0.00,SW,230,0.0,0.0,98,0.00,,---,0.04,VWS V14.01,2013-01-06 23:45:00,
2013-01-06 15:50:00,45.3,44.8,0.00,SSW,207,0.0,0.0,98,0.00,,---,0.04,VWS V14.01,2013-01-06 23:50:00,
2013-01-06 15:55:00,45.3,44.8,0.00,SW,215,0.0,0.0,98,0.00,,---,0.04,VWS V14.01,2013-01-06 23:55:00,
2013-01-06 16:00:00,45.3,44.8,0.00,SW,227,0.0,0.0,98,0.00,,---,0.04,VWS V14.01,2013-01-07 00:00:00,
2013-01-06 16:05:00,45.3,44.8,0.00,SW,227,0.0,0.0,98,0.00,,---,0.04,VWS V14.01,2013-01-07 00:05:00,
2013-01-06 16:10:00,45.3,44.8,0.00,SW,227,0.0,0.0,98,0.00,,---,0.04,VWS V14.01,2013-01-07 00:10:00,
2013-01-06 16:15:00,45.3,44.8,0.00,SW,227,0.0,0.0,98,0.00,,---,0.04,VWS V14.01,2013-01-07 00:15:00,
2013-01-06 16:20:00,45.3,44.8,0.00,SW,227,0.0,0.0,98,0.00,,---,0.04,VWS V14.01,2013-01-07 00:20:00,
2013-01-06 16:25:00,45.1,44.6,0.00,SW,227,0.0,0.0,98,0.00,,---,0.04,VWS V14.01,2013-01-07 00:25:00,
2013-01-06 16:30:00,45.1,44.6,0.00,SW,227,0.0,0.0,98,0.00,,---,0.04,VWS V14.01,2013-01-07 00:30:00,
2013-01-06 16:35:00,45.1,44.6,0.00,SW,227,0.0,0.0,98,0.00,,---,0.04,VWS V14.01,2013-01-07 00:35:00,
2013-01-06 16:40:00,45.1,44.6,0.00,SW,227,0.0,0.0,98,0.00,,---,0.04,VWS V14.01,2013-01-07 00:40:00,
2013-01-06 16:45:00,45.0,44.4,0.00,SW,227,0.0,0.0,98,0.00,,---,0.04,VWS V14.01,2013-01-07 00:45:00,
2013-01-06 16:50:00,45.0,44.4,0.00,SW,227,0.0,0.0,98,0.00,,---,0.04,VWS V14.01,2013-01-07 00:50:00,
2013-01-06 16:55:00,44.8,44.2,0.00,SW,227,0.0,0.0,98,0.00,,---,0.04,VWS V14.01,2013-01-07 00:55:00,
2013-01-06 17:00:00,44.8,44.2,0.00,SW,227,0.0,0.0,98,0.00,,---,0.04,VWS V14.01,2013-01-07 01:00:00,
2013-01-06 17:05:00,44.8,44.2,0.00,SW,227,0.0,0.0,98,0.00,,---,0.04,VWS V14.01,2013-01-07 01:05:00,
2013-01-06 17:10:00,44.6,44.1,0.00,SW,227,0.0,0.0,98,0.00,,---,0.04,VWS V14.01,2013-01-07 01:10:00,
2013-01-06 17:15:00,44.6,44.1,0.00,SW,227,0.0,0.0,98,0.00,,---,0.04,VWS V14.01,2013-01-07 01:15:00,
2013-01-06 17:20:00,44.6,44.1,0.00,SW,227,0.0,0.0,98,0.00,,---,0.04,VWS V14.01,2013-01-07 01:20:00,
2013-01-06 17:25:00,44.6,44.1,0.00,SW,227,0.0,0.0,98,0.00,,---,0.04,VWS V14.01,2013-01-07 01:25:00,
2013-01-06 17:30:00,44.6,44.1,0.00,SW,227,0.0,0.0,98,0.00,,---,0.04,VWS V14.01,2013-01-07 01:30:00,
2013-01-06 17:35:00,44.4,43.9,0.00,SW,227,0.0,0.0,98,0.00,,---,0.04,VWS V14.01,2013-01-07 01:35:00,
2013-01-06 17:40:00,44.4,43.9,0.00,WSW,247,0.0,0.0,98,0.00,,---,0.04,VWS V14.01,2013-01-07 01:40:00,
2013-01-06 17:45:00,44.4,43.9,0.00,WSW,247,0.0,0.0,98,0.00,,---,0.04,VWS V14.01,2013-01-07 01:45:00,
2013-01-06 17:50:00,44.4,43.9,0.00,WSW,247,0.0,0.0,98,0.00,,---,0.04,VWS V14.01,2013-01-07 01:50:00,
2013-01-06 17:55:00,44.2,43.7,0.00,West,280,0.0,0.0,98,0.00,,---,0.04,VWS V14.01,2013-01-07 01:55:00,
2013-01-06 18:00:00,44.2,43.7,0.00,West,261,0.0,0.0,98,0.00,,---,0.04,VWS V14.01,2013-01-07 02:00:00,
2013-01-06 18:05:00,44.2,43.7,0.00,West,261,0.0,0.0,98,0.00,,---,0.04,VWS V14.01,2013-01-07 02:05:00,
2013-01-06 18:10:00,44.2,43.7,0.00,WSW,253,0.0,0.0,98,0.00,,---,0.04,VWS V14.01,2013-01-07 02:10:00,
2013-01-06 18:15:00,44.1,43.5,0.00,NW,320,0.0,0.0,98,0.00,,---,0.04,VWS V14.01,2013-01-07 02:15:00,
2013-01-06 18:20:00,44.1,43.5,0.00,SW,230,0.0,0.0,98,0.00,,---,0.04,VWS V14.01,2013-01-07 02:20:00,
2013-01-06 18:25:00,44.1,43.5,0.00,SSW,196,0.0,0.0,98,0.00,,---,0.04,VWS V14.01,2013-01-07 02:25:00,
2013-01-06 18:30:00,43.9,43.3,0.00,SE,140,0.0,0.0,98,0.00,,---,0.04,VWS V14.01,2013-01-07 02:30:00,
2013-01-06 18:35:00,43.9,43.3,0.00,SE,136,0.0,0.0,98,0.00,,---,0.04,VWS V14.01,2013-01-07 02:35:00,
2013-01-06 18:40:00,43.9,43.3,0.00,NE,36,0.0,0.0,98,0.00,,---,0.04,VWS V14.01,2013-01-07 02:40:00,
2013-01-06 18:45:00,43.9,43.3,0.00,NW,307,0.0,0.0,98,0.00,,---,0.04,VWS V14.01,2013-01-07 02:45:00,
2013-01-06 18:50:00,43.9,43.3,0.00,NW,307,0.0,0.0,98,0.00,,---,0.04,VWS V14.01,2013-01-07 02:50:00,
2013-01-06 18:55:00,43.9,43.3,0.00,NW,307,0.0,0.0,98,0.00,,---,0.04,VWS V14.01,2013-01-07 02:55:00,
2013-01-06 19:00:00,43.9,43.3,0.00,NW,307,0.0,0.0,98,0.00,,---,0.04,VWS V14.01,2013-01-07 03:00:00,
2013-01-06 19:05:00,43.9,43.3,0.00,NW,307,0.0,0.0,98,0.00,,---,0.04,VWS V14.01,2013-01-07 03:05:00,
2013-01-06 19:10:00,43.9,43.3,0.00,WNW,297,0.0,0.0,98,0.00,,---,0.04,VWS V14.01,2013-01-07 03:10:00,
2013-01-06 19:15:00,43.9,43.3,0.00,WNW,297,0.0,0.0,98,0.00,,---,0.04,VWS V14.01,2013-01-07 03:15:00,
2013-01-06 19:20:00,43.9,43.3,0.00,WNW,297,0.0,0.0,98,0.00,,---,0.04,VWS V14.01,2013-01-07 03:20:00,
2013-01-06 19:25:00,43.9,43.3,0.00,WNW,297,0.0,0.0,98,0.00,,---,0.04,VWS V14.01,2013-01-07 03:25:00,
2013-01-06 19:30:00,43.7,43.2,0.00,WNW,297,0.0,0.0,98,0.00,,---,0.04,VWS V14.01,2013-01-07 03:30:00,
2013-01-06 19:35:00,43.7,43.2,0.00,WNW,297,0.0,0.0,98,0.00,,---,0.04,VWS V14.01,2013-01-07 03:35:00,
2013-01-06 19:40:00,43.7,43.2,0.00,WNW,297,0.0,0.0,98,0.00,,---,0.04,VWS V14.01,2013-01-07 03:40:00,
2013-01-06 19:45:00,43.7,43.2,0.00,WNW,297,0.0,0.0,98,0.00,,---,0.04,VWS V14.01,2013-01-07 03:45:00,
2013-01-06 19:50:00,43.7,43.2,0.00,WNW,297,0.0,0.0,98,0.00,,---,0.04,VWS V14.01,2013-01-07 03:50:00,
2013-01-06 19:55:00,43.7,43.2,0.00,WNW,297,0.0,0.0,98,0.00,,---,0.04,VWS V14.01,2013-01-07 03:55:00,
2013-01-06 20:00:00,43.7,43.2,0.00,WSW,240,0.0,0.0,98,0.00,,---,0.04,VWS V14.01,2013-01-07 04:00:00,
2013-01-06 20:05:00,43.7,43.2,0.00,SSW,204,0.0,0.0,98,0.00,,---,0.04,VWS V14.01,2013-01-07 04:05:00,
2013-01-06 20:10:00,43.7,43.2,0.00,SSW,204,0.0,0.0,98,0.00,,---,0.04,VWS V14.01,2013-01-07 04:10:00,
2013-01-06 20:15:00,43.7,43.2,0.00,NW,313,0.0,0.0,98,0.00,,---,0.04,VWS V14.01,2013-01-07 04:15:00,
2013-01-06 20:20:00,43.5,43.0,0.00,North,357,0.0,0.0,98,0.00,,---,0.04,VWS V14.01,2013-01-07 04:20:00,
2013-01-06 20:25:00,43.5,43.0,0.00,North,357,0.0,0.0,98,0.00,,---,0.04,VWS V14.01,2013-01-07 04:25:00,
2013-01-06 20:30:00,43.5,43.0,0.00,ESE,112,0.0,0.0,98,0.00,,---,0.04,VWS V14.01,2013-01-07 04:30:00,
2013-01-06 20:35:00,43.5,43.0,0.00,SE,138,0.0,0.0,98,0.00,,---,0.04,VWS V14.01,2013-01-07 04:35:00,
2013-01-06 20:40:00,43.5,43.0,0.00,SE,137,3.6,4.0,98,0.00,,---,0.04,VWS V14.01,2013-01-07 04:40:00,
2013-01-06 20:45:00,43.5,43.0,0.00,East,97,0.0,0.0,98,0.00,,---,0.04,VWS V14.01,2013-01-07 04:45:00,
2013-01-06 20:50:00,43.5,43.0,0.00,East,101,0.0,0.0,98,0.00,,---,0.04,VWS V14.01,2013-01-07 04:50:00,
2013-01-06 20:55:00,43.5,43.0,0.00,ESE,106,0.0,0.0,98,0.00,,---,0.04,VWS V14.01,2013-01-07 04:55:00,
2013-01-06 21:00:00,43.5,43.0,0.00,SE,139,0.0,0.0,98,0.00,,---,0.04,VWS V14.01,2013-01-07 05:00:00,
2013-01-06 21:01:00,43.3,42.8,0.00,SE,139,0.0,0.0,98,0.00,,---,0.04,VWS V14.01,2013-01-07 05:01:00,
2013-01-06 21:06:00,43.2,42.6,0.00,SE,141,0.0,0.0,98,0.00,,---,0.04,VWS V14.01,2013-01-07 05:06:00,
2013-01-06 21:11:00,43.2,42.6,0.00,South,175,0.0,0.0,98,0.00,,---,0.04,VWS V14.01,2013-01-07 05:11:00,
2013-01-06 21:16:00,43.0,42.5,0.00,SE,137,0.0,0.0,98,0.00,,---,0.04,VWS V14.01,2013-01-07 05:16:00,
2013-01-06 21:21:00,43.0,42.5,0.00,SE,136,0.0,0.0,98,0.00,,---,0.04,VWS V14.01,2013-01-07 05:21:00,
2013-01-06 21:26:00,43.0,42.5,0.00,East,83,0.0,0.0,98,0.00,,---,0.04,VWS V14.01,2013-01-07 05:26:00,
2013-01-06 21:31:00,42.8,42.3,0.00,ESE,103,3.6,3.6,98,0.00,,---,0.04,VWS V14.01,2013-01-07 05:31:00,
2013-01-06 21:36:00,42.6,42.1,0.00,SE,145,0.0,0.0,98,0.00,,---,0.04,VWS V14.01,2013-01-07 05:36:00,
2013-01-06 21:41:00,42.6,42.1,0.00,SE,144,0.0,0.0,98,0.00,,---,0.04,VWS V14.01,2013-01-07 05:41:00,
2013-01-06 21:46:00,42.4,41.9,0.00,SE,146,0.0,0.0,98,0.16,,---,0.20,VWS V14.01,2013-01-07 05:46:00,
2013-01-06 21:51:00,42.4,41.9,0.00,SW,234,0.0,0.0,98,0.16,,---,0.20,VWS V14.01,2013-01-07 05:51:00,
2013-01-06 21:56:00,42.4,41.9,0.00,East,83,0.0,0.0,98,0.16,,---,0.20,VWS V14.01,2013-01-07 05:56:00,
2013-01-06 22:01:00,42.4,41.9,0.00,SE,144,0.0,0.0,98,0.16,,---,0.20,VWS V14.01,2013-01-07 06:01:00,
2013-01-06 22:06:00,42.4,41.9,0.00,East,91,0.0,0.0,98,0.16,,---,0.20,VWS V14.01,2013-01-07 06:06:00,
2013-01-06 22:11:00,42.3,41.7,0.00,SSE,148,0.0,0.0,98,0.16,,---,0.20,VWS V14.01,2013-01-07 06:11:00,
2013-01-06 22:16:00,42.3,41.7,0.00,East,80,0.0,0.0,98,0.16,,---,0.20,VWS V14.01,2013-01-07 06:16:00,
2013-01-06 22:21:00,42.3,41.7,0.00,East,80,0.0,0.0,98,0.16,,---,0.20,VWS V14.01,2013-01-07 06:21:00,
2013-01-06 22:26:00,42.3,41.7,0.00,East,82,0.0,0.0,98,0.16,,---,0.20,VWS V14.01,2013-01-07 06:26:00,
2013-01-06 22:31:00,42.3,41.7,0.00,East,82,0.0,0.0,98,0.16,,---,0.20,VWS V14.01,2013-01-07 06:31:00,
2013-01-06 22:36:00,42.3,41.7,0.00,East,82,0.0,0.0,98,0.16,,---,0.20,VWS V14.01,2013-01-07 06:36:00,
2013-01-06 22:41:00,42.3,41.7,0.00,North,0,0.0,0.0,98,0.16,,---,0.20,VWS V14.01,2013-01-07 06:41:00,
2013-01-06 22:46:00,42.1,41.6,0.00,WNW,284,0.0,0.0,98,0.00,,---,0.20,VWS V14.01,2013-01-07 06:46:00,
2013-01-06 22:51:00,42.1,41.6,0.00,WNW,284,0.0,0.0,98,0.00,,---,0.20,VWS V14.01,2013-01-07 06:51:00,
2013-01-06 22:56:00,42.1,41.6,0.00,WNW,284,0.0,0.0,98,0.00,,---,0.20,VWS V14.01,2013-01-07 06:56:00,
2013-01-06 23:01:00,42.1,41.6,0.00,WNW,294,0.0,0.0,98,0.00,,---,0.20,VWS V14.01,2013-01-07 07:01:00,
2013-01-06 23:06:00,42.1,41.6,0.00,WNW,295,0.0,0.0,98,0.00,,---,0.20,VWS V14.01,2013-01-07 07:06:00,
2013-01-06 23:11:00,42.1,41.6,0.00,WNW,294,0.0,0.0,98,0.00,,---,0.20,VWS V14.01,2013-01-07 07:11:00,
2013-01-06 23:16:00,42.1,41.6,0.00,WNW,294,0.0,0.0,98,0.00,,---,0.20,VWS V14.01,2013-01-07 07:16:00,
2013-01-06 23:21:00,42.1,41.6,0.00,East,99,0.0,0.0,98,0.00,,---,0.20,VWS V14.01,2013-01-07 07:21:00,
2013-01-06 23:26:00,42.1,41.6,0.00,ESE,103,0.0,0.0,98,0.00,,---,0.20,VWS V14.01,2013-01-07 07:26:00,
2013-01-06 23:31:00,42.1,41.6,0.00,SE,129,0.0,0.0,98,0.00,,---,0.20,VWS V14.01,2013-01-07 07:31:00,
2013-01-06 23:36:00,41.9,41.4,0.00,SE,129,0.0,0.0,98,0.00,,---,0.20,VWS V14.01,2013-01-07 07:36:00,
2013-01-06 23:41:00,41.9,41.4,0.00,ESE,119,0.0,0.0,98,0.04,,---,0.24,VWS V14.01,2013-01-07 07:41:00,
2013-01-06 23:46:00,41.9,41.4,0.00,ESE,123,0.0,0.0,98,0.04,,---,0.24,VWS V14.01,2013-01-07 07:46:00,
2013-01-06 23:51:00,42.1,41.6,0.00,ESE,105,0.0,0.0,98,0.04,,---,0.24,VWS V14.01,2013-01-07 07:51:00,
2013-01-06 23:56:00,42.1,41.6,0.00,ESE,105,0.0,0.0,98,0.04,,---,0.24,VWS V14.01,2013-01-07 07:56:00,